createdAt,value
2017-10-07T00:01:58.970Z,3.30
2017-10-07T00:04:27.466Z,3.20
2017-10-07T00:06:56.123Z,3.20
2017-10-07T00:09:25.616Z,3.20
2017-10-07T00:11:54.310Z,3.10
2017-10-07T00:14:22.966Z,3.00
2017-10-07T00:16:51.937Z,3.10
2017-10-07T00:19:20.641Z,3.00
2017-10-07T00:21:50.254Z,3.10
2017-10-07T00:24:19.184Z,3.00
2017-10-07T00:26:47.913Z,3.00
2017-10-07T00:29:16.585Z,3.10
2017-10-07T00:31:45.062Z,3.00
2017-10-07T00:34:13.777Z,2.90
2017-10-07T00:36:42.474Z,2.90
2017-10-07T00:39:11.407Z,2.80
2017-10-07T00:41:40.305Z,2.80
2017-10-07T00:44:09.729Z,2.80
2017-10-07T00:46:38.108Z,2.70
2017-10-07T00:49:07.017Z,2.90
2017-10-07T00:51:35.562Z,2.70
2017-10-07T00:54:03.873Z,2.60
2017-10-07T00:56:31.874Z,2.60
2017-10-07T00:59:00.129Z,2.60
2017-10-07T01:01:28.117Z,2.60
2017-10-07T01:03:56.813Z,2.60
2017-10-07T01:06:25.290Z,2.60
2017-10-07T01:08:53.765Z,2.60
2017-10-07T01:11:22.254Z,2.60
2017-10-07T01:13:50.916Z,2.60
2017-10-07T01:16:20.045Z,2.50
2017-10-07T01:18:48.733Z,2.40
2017-10-07T01:21:16.710Z,2.40
2017-10-07T01:23:45.666Z,2.30
2017-10-07T01:26:14.823Z,2.50
2017-10-07T01:28:43.930Z,2.70
2017-10-07T01:31:13.389Z,2.70
2017-10-07T01:33:42.105Z,2.70
2017-10-07T01:36:10.642Z,2.80
2017-10-07T01:38:38.963Z,2.90
2017-10-07T01:41:07.650Z,2.90
2017-10-07T01:43:36.198Z,2.90
2017-10-07T01:46:04.059Z,2.90
2017-10-07T01:48:33.252Z,2.90
2017-10-07T01:51:01.926Z,2.90
2017-10-07T01:53:30.935Z,2.70
2017-10-07T01:55:59.867Z,2.70
2017-10-07T01:58:28.593Z,2.70
2017-10-07T02:00:57.259Z,2.60
2017-10-07T02:03:25.961Z,2.60
2017-10-07T02:05:54.884Z,2.50
2017-10-07T02:08:23.577Z,2.50
2017-10-07T02:10:52.293Z,2.50
2017-10-07T02:13:20.969Z,2.50
2017-10-07T02:15:49.892Z,2.40
2017-10-07T02:18:19.364Z,2.50
2017-10-07T02:20:48.041Z,2.50
2017-10-07T02:23:16.741Z,2.60
2017-10-07T02:25:45.410Z,2.70
2017-10-07T02:28:14.952Z,2.60
2017-10-07T02:30:43.902Z,2.50
2017-10-07T02:33:12.564Z,2.50
2017-10-07T02:35:41.993Z,2.50
2017-10-07T02:38:10.691Z,2.50
2017-10-07T02:40:39.363Z,2.40
2017-10-07T02:43:08.036Z,2.40
2017-10-07T02:45:37.097Z,2.50
2017-10-07T02:48:05.764Z,2.50
2017-10-07T02:50:34.447Z,2.70
2017-10-07T02:53:03.173Z,2.70
2017-10-07T02:55:31.841Z,2.80
2017-10-07T02:58:00.501Z,2.80
2017-10-07T03:00:29.197Z,2.80
2017-10-07T03:02:57.939Z,2.90
2017-10-07T03:05:26.862Z,2.90
2017-10-07T03:07:55.603Z,2.70
2017-10-07T03:10:25.037Z,2.60
2017-10-07T03:12:53.706Z,2.60
2017-10-07T03:15:22.381Z,2.60
2017-10-07T03:17:51.850Z,2.50
2017-10-07T03:20:20.512Z,2.50
2017-10-07T03:22:49.215Z,2.50
2017-10-07T03:25:18.106Z,2.50
2017-10-07T03:27:46.779Z,2.40
2017-10-07T03:30:15.505Z,2.40
2017-10-07T03:32:44.175Z,2.30
2017-10-07T03:35:12.877Z,2.40
2017-10-07T03:37:41.561Z,2.40
2017-10-07T03:40:10.233Z,2.40
2017-10-07T03:42:38.411Z,2.30
2017-10-07T03:45:07.095Z,2.20
2017-10-07T03:47:35.781Z,2.20
2017-10-07T03:50:04.765Z,2.20
2017-10-07T03:52:33.451Z,2.30
2017-10-07T03:55:02.136Z,2.20
2017-10-07T03:57:30.861Z,2.20
2017-10-07T03:59:59.604Z,2.10
2017-10-07T04:02:28.273Z,2.00
2017-10-07T04:04:57.001Z,1.90
2017-10-07T04:07:25.685Z,2.00
2017-10-07T04:09:54.357Z,2.00
2017-10-07T04:12:24.093Z,1.90
2017-10-07T04:14:52.767Z,1.90
2017-10-07T04:17:21.466Z,1.90
2017-10-07T04:19:51.057Z,1.80
2017-10-07T04:22:19.801Z,1.80
2017-10-07T04:24:48.561Z,1.70
2017-10-07T04:27:17.357Z,1.70
2017-10-07T04:29:46.485Z,1.60
2017-10-07T04:32:15.417Z,1.60
2017-10-07T04:34:44.148Z,1.60
2017-10-07T04:37:13.659Z,1.60
2017-10-07T04:39:42.621Z,1.60
2017-10-07T04:42:11.341Z,1.60
2017-10-07T04:44:41.195Z,1.60
2017-10-07T04:47:09.948Z,1.70
2017-10-07T04:49:38.669Z,1.60
2017-10-07T04:52:07.238Z,1.70
2017-10-07T04:54:36.008Z,1.60
2017-10-07T04:57:04.761Z,1.60
2017-10-07T04:59:33.477Z,1.60
2017-10-07T05:02:02.542Z,1.60
2017-10-07T05:04:31.322Z,1.60
2017-10-07T05:07:00.070Z,1.60
2017-10-07T05:09:28.849Z,1.60
2017-10-07T05:11:57.634Z,1.60
2017-10-07T05:14:27.198Z,1.60
2017-10-07T05:16:55.854Z,1.60
2017-10-07T05:19:24.572Z,1.60
2017-10-07T05:21:53.264Z,1.60
2017-10-07T05:24:21.969Z,1.60
2017-10-07T05:26:50.533Z,1.60
2017-10-07T05:29:20.039Z,1.70
2017-10-07T05:31:48.801Z,1.60
2017-10-07T05:34:17.756Z,1.70
2017-10-07T05:36:47.507Z,1.70
2017-10-07T05:39:16.238Z,1.70
2017-10-07T05:41:45.174Z,1.70
2017-10-07T05:44:13.920Z,1.70
2017-10-07T05:46:42.611Z,1.70
2017-10-07T05:49:11.334Z,1.80
2017-10-07T05:51:40.081Z,1.80
2017-10-07T05:54:08.811Z,1.90
2017-10-07T05:56:38.421Z,2.00
2017-10-07T05:59:07.129Z,2.00
2017-10-07T06:01:35.845Z,2.20
2017-10-07T06:04:04.745Z,2.30
2017-10-07T06:06:33.683Z,2.40
2017-10-07T06:09:02.415Z,2.40
2017-10-07T06:11:31.001Z,2.60
2017-10-07T06:13:59.428Z,2.70
2017-10-07T06:16:28.175Z,2.70
2017-10-07T06:18:57.673Z,2.90
2017-10-07T06:21:26.449Z,2.90
2017-10-07T06:23:55.101Z,3.10
2017-10-07T06:26:23.841Z,3.20
2017-10-07T06:28:52.734Z,3.40
2017-10-07T06:31:21.738Z,3.60
2017-10-07T06:33:50.616Z,3.80
2017-10-07T06:36:19.705Z,3.90
2017-10-07T06:38:48.390Z,3.90
2017-10-07T06:41:17.088Z,4.10
2017-10-07T06:43:46.025Z,4.30
2017-10-07T06:46:14.569Z,4.60
2017-10-07T06:48:43.245Z,5.50
2017-10-07T06:51:11.972Z,6.80
2017-10-07T06:53:40.914Z,8.60
2017-10-07T06:56:10.119Z,11.20
2017-10-07T06:58:38.584Z,11.10
2017-10-07T07:01:07.331Z,12.20
2017-10-07T07:03:35.796Z,13.30
2017-10-07T07:06:04.365Z,14.50
2017-10-07T07:08:32.814Z,15.20
2017-10-07T07:11:01.253Z,15.70
2017-10-07T07:13:29.731Z,15.80
2017-10-07T07:15:58.493Z,16.20
2017-10-07T07:18:26.926Z,17.00
2017-10-07T07:20:55.309Z,16.80
2017-10-07T07:23:23.758Z,17.50
2017-10-07T07:25:52.250Z,18.30
2017-10-07T07:28:20.788Z,18.60
2017-10-07T07:30:49.611Z,19.10
2017-10-07T07:33:18.063Z,19.40
2017-10-07T07:35:46.566Z,19.80
2017-10-07T07:38:15.040Z,20.90
2017-10-07T07:40:44.280Z,21.90
2017-10-07T07:43:12.734Z,21.90
2017-10-07T07:45:41.188Z,22.20
2017-10-07T07:48:10.362Z,22.20
2017-10-07T07:50:38.484Z,23.60
2017-10-07T07:53:06.933Z,24.20
2017-10-07T07:55:35.181Z,24.80
2017-10-07T07:58:03.394Z,23.60
2017-10-07T08:00:31.454Z,24.60
2017-10-07T08:02:59.861Z,25.00
2017-10-07T08:05:29.062Z,25.00
2017-10-07T08:07:57.458Z,25.00
2017-10-07T08:10:25.854Z,25.60
2017-10-07T08:12:54.278Z,22.60
2017-10-07T08:15:22.569Z,21.60
2017-10-07T08:17:50.967Z,21.50
2017-10-07T08:20:19.394Z,22.10
2017-10-07T08:22:47.797Z,20.20
2017-10-07T08:25:16.420Z,18.90
2017-10-07T08:27:44.853Z,17.50
2017-10-07T08:30:13.245Z,17.20
2017-10-07T08:32:41.645Z,16.90
2017-10-07T08:35:10.845Z,16.40
2017-10-07T08:37:39.261Z,16.40
2017-10-07T08:40:07.668Z,15.70
2017-10-07T08:42:36.713Z,15.80
2017-10-07T08:45:09.544Z,16.10
2017-10-07T08:47:38.294Z,16.50
2017-10-07T08:50:06.593Z,18.00
2017-10-07T08:52:35.768Z,19.50
2017-10-07T08:55:04.591Z,19.70
2017-10-07T08:57:33.332Z,18.00
2017-10-07T09:00:06.485Z,18.40
2017-10-07T09:02:35.844Z,18.20
2017-10-07T09:05:04.310Z,18.20
2017-10-07T09:07:33.058Z,17.40
2017-10-07T09:10:02.227Z,17.10
2017-10-07T09:12:33.694Z,17.20
2017-10-07T09:15:02.440Z,18.30
2017-10-07T09:17:30.890Z,18.50
2017-10-07T09:19:59.303Z,18.20
2017-10-07T09:22:27.782Z,19.00
2017-10-07T09:24:56.264Z,19.20
2017-10-07T09:27:24.468Z,19.20
2017-10-07T09:29:52.960Z,21.10
2017-10-07T09:32:21.433Z,20.50
2017-10-07T09:34:49.968Z,19.50
2017-10-07T09:37:18.506Z,19.70
2017-10-07T09:39:46.969Z,20.10
2017-10-07T09:42:19.399Z,19.60
2017-10-07T09:44:47.900Z,18.70
2017-10-07T09:47:17.157Z,17.40
2017-10-07T09:49:45.905Z,17.30
2017-10-07T09:52:14.407Z,17.60
2017-10-07T09:54:42.878Z,17.40
2017-10-07T09:57:11.582Z,17.60
2017-10-07T09:59:40.933Z,18.50
2017-10-07T10:02:09.471Z,18.50
2017-10-07T10:04:37.765Z,18.60
2017-10-07T10:07:06.247Z,19.10
2017-10-07T10:09:34.956Z,18.60
2017-10-07T10:12:03.426Z,18.30
2017-10-07T10:14:31.884Z,21.10
2017-10-07T10:17:00.379Z,23.50
2017-10-07T10:19:28.823Z,24.60
2017-10-07T10:21:57.525Z,26.00
2017-10-07T10:24:26.060Z,25.30
2017-10-07T10:26:54.793Z,24.90
2017-10-07T10:29:23.262Z,24.60
2017-10-07T10:31:51.719Z,25.10
2017-10-07T10:34:20.966Z,26.20
2017-10-07T10:36:49.521Z,26.20
2017-10-07T10:39:17.997Z,26.00
2017-10-07T10:41:48.067Z,25.70
2017-10-07T10:44:16.565Z,25.80
2017-10-07T10:46:45.036Z,26.60
2017-10-07T10:49:13.530Z,27.70
2017-10-07T10:51:42.085Z,25.70
2017-10-07T10:54:10.581Z,25.40
2017-10-07T10:56:39.082Z,26.60
2017-10-07T10:59:07.837Z,27.50
2017-10-07T11:01:36.330Z,26.60
2017-10-07T11:04:04.803Z,24.30
2017-10-07T11:06:33.308Z,24.30
2017-10-07T11:09:01.796Z,24.40
2017-10-07T11:11:30.269Z,25.50
2017-10-07T11:13:58.802Z,25.50
2017-10-07T11:16:27.300Z,24.20
2017-10-07T11:18:56.541Z,25.80
2017-10-07T11:21:25.059Z,25.80
2017-10-07T11:23:54.323Z,25.90
2017-10-07T11:26:23.085Z,25.90
2017-10-07T11:28:51.819Z,25.80
2017-10-07T11:31:20.299Z,26.00
2017-10-07T11:33:48.782Z,26.10
2017-10-07T11:36:18.046Z,27.20
2017-10-07T11:38:46.523Z,27.10
2017-10-07T11:41:15.788Z,26.80
2017-10-07T11:43:44.597Z,26.80
2017-10-07T11:46:13.377Z,26.70
2017-10-07T11:48:41.892Z,26.60
2017-10-07T11:51:10.408Z,27.20
2017-10-07T11:53:38.868Z,26.40
2017-10-07T11:56:07.335Z,26.20
2017-10-07T11:58:35.845Z,26.40
2017-10-07T12:01:04.316Z,27.10
2017-10-07T12:03:32.802Z,27.00
2017-10-07T12:06:01.721Z,27.10
2017-10-07T12:08:30.200Z,26.70
2017-10-07T12:10:59.440Z,24.20
2017-10-07T12:13:27.935Z,24.20
2017-10-07T12:15:56.395Z,25.10
2017-10-07T12:18:24.858Z,25.40
2017-10-07T12:20:54.115Z,26.80
2017-10-07T12:23:22.597Z,26.80
2017-10-07T12:25:51.080Z,27.20
2017-10-07T12:28:19.584Z,27.30
2017-10-07T12:30:48.049Z,26.30
2017-10-07T12:33:16.534Z,26.50
2017-10-07T12:35:45.049Z,26.10
2017-10-07T12:38:14.293Z,25.40
2017-10-07T12:40:42.753Z,25.30
2017-10-07T12:43:11.283Z,24.50
2017-10-07T12:45:39.948Z,23.70
2017-10-07T12:48:08.206Z,23.10
2017-10-07T12:50:36.681Z,22.70
2017-10-07T12:53:05.105Z,23.40
2017-10-07T12:55:33.570Z,23.90
2017-10-07T12:58:01.840Z,23.50
2017-10-07T13:00:30.569Z,22.70
2017-10-07T13:02:59.029Z,23.50
2017-10-07T13:05:27.517Z,24.20
2017-10-07T13:07:55.985Z,24.70
2017-10-07T13:10:24.517Z,22.80
2017-10-07T13:12:53.757Z,19.20
2017-10-07T13:15:22.221Z,19.10
2017-10-07T13:17:50.685Z,19.20
2017-10-07T13:20:19.173Z,20.40
2017-10-07T13:22:47.646Z,20.80
2017-10-07T13:25:16.870Z,21.40
2017-10-07T13:27:45.344Z,21.30
2017-10-07T13:30:13.818Z,21.20
2017-10-07T13:32:43.062Z,21.50
2017-10-07T13:35:11.518Z,21.50
2017-10-07T13:37:39.970Z,21.40
2017-10-07T13:40:09.254Z,22.10
2017-10-07T13:42:37.712Z,22.10
2017-10-07T13:45:06.161Z,21.80
2017-10-07T13:47:34.849Z,21.10
2017-10-07T13:50:03.320Z,21.10
2017-10-07T13:52:31.763Z,20.90
2017-10-07T13:55:00.282Z,20.60
2017-10-07T13:57:28.555Z,20.70
2017-10-07T13:59:56.845Z,20.60
2017-10-07T14:02:25.326Z,20.20
2017-10-07T14:04:53.803Z,20.30
2017-10-07T14:07:22.246Z,20.60
2017-10-07T14:09:50.738Z,20.80
2017-10-07T14:12:19.183Z,20.70
2017-10-07T14:14:47.656Z,20.50
2017-10-07T14:17:16.129Z,20.30
2017-10-07T14:19:44.619Z,20.50
2017-10-07T14:22:13.091Z,20.40
2017-10-07T14:24:41.557Z,19.80
2017-10-07T14:27:09.993Z,19.90
2017-10-07T14:29:38.457Z,19.80
2017-10-07T14:32:06.940Z,19.20
2017-10-07T14:34:35.652Z,18.80
2017-10-07T14:37:04.093Z,18.10
2017-10-07T14:39:32.552Z,18.00
2017-10-07T14:42:01.037Z,17.80
2017-10-07T14:44:29.475Z,17.50
2017-10-07T14:46:57.910Z,17.10
2017-10-07T14:52:42.731Z,16.70
2017-10-07T14:55:11.213Z,16.20
2017-10-07T14:57:39.725Z,16.00
2017-10-07T15:00:08.224Z,15.80
2017-10-07T15:02:37.492Z,15.20
2017-10-07T15:05:06.044Z,15.10
2017-10-07T15:07:34.507Z,14.60
2017-10-07T15:10:02.981Z,14.30
2017-10-07T15:12:31.278Z,14.00
2017-10-07T15:14:59.729Z,13.60
2017-10-07T15:17:28.983Z,13.20
2017-10-07T15:19:57.418Z,13.10
2017-10-07T15:22:25.850Z,13.00
2017-10-07T15:24:54.347Z,12.80
2017-10-07T15:27:22.806Z,12.60
2017-10-07T15:29:51.248Z,12.50
2017-10-07T15:32:19.771Z,12.30
2017-10-07T15:34:48.213Z,12.30
2017-10-07T15:37:16.670Z,12.30
2017-10-07T15:39:45.934Z,12.00
2017-10-07T15:42:14.374Z,12.00
2017-10-07T15:44:42.843Z,12.00
2017-10-07T15:47:12.130Z,11.60
2017-10-07T15:49:40.592Z,11.60
2017-10-07T15:52:09.075Z,11.50
2017-10-07T15:54:37.561Z,11.30
2017-10-07T15:57:06.284Z,11.20
2017-10-07T15:59:34.997Z,10.90
2017-10-07T16:02:03.520Z,10.70
2017-10-07T16:04:31.980Z,10.60
2017-10-07T16:07:00.478Z,10.30
2017-10-07T16:09:28.991Z,10.00
2017-10-07T16:11:58.230Z,9.40
2017-10-07T16:14:27.456Z,9.20
2017-10-07T16:16:56.285Z,9.20
2017-10-07T16:19:25.721Z,8.90
2017-10-07T16:21:54.187Z,8.80
2017-10-07T16:24:22.922Z,8.70
2017-10-07T16:26:51.615Z,8.60
2017-10-07T16:29:20.366Z,8.30
2017-10-07T16:31:49.207Z,8.20
2017-10-07T16:34:19.410Z,8.00
2017-10-07T16:36:48.137Z,7.80
2017-10-07T16:39:16.969Z,7.70
2017-10-07T16:41:46.458Z,7.30
2017-10-07T16:44:15.175Z,7.30
2017-10-07T16:46:44.000Z,7.20
2017-10-07T16:49:12.272Z,7.10
2017-10-07T16:51:40.991Z,6.90
2017-10-07T16:54:09.766Z,6.80
2017-10-07T16:56:38.516Z,6.80
2017-10-07T16:59:07.551Z,6.60
2017-10-07T17:01:36.447Z,6.50
2017-10-07T17:04:05.174Z,6.40
2017-10-07T17:06:34.578Z,6.20
2017-10-07T17:09:04.294Z,6.20
2017-10-07T17:32:29.599Z,5.60
2017-10-07T17:37:40.341Z,5.70
2017-10-07T17:42:49.982Z,5.70
2017-10-07T17:45:19.499Z,5.70
2017-10-07T18:00:42.190Z,5.40
2017-10-07T18:03:11.118Z,5.40
2017-10-07T18:05:39.831Z,5.30
2017-10-07T18:08:08.861Z,5.20
2017-10-07T18:10:37.547Z,5.20
2017-10-07T18:13:06.058Z,5.10
2017-10-07T18:15:34.983Z,5.00
2017-10-07T18:18:04.855Z,5.00
2017-10-07T18:20:33.663Z,4.90
2017-10-07T18:23:02.386Z,4.90
2017-10-07T18:25:32.674Z,4.80
2017-10-07T18:28:15.680Z,4.80
2017-10-07T18:30:47.334Z,4.70
2017-10-07T18:35:56.484Z,4.50
2017-10-07T18:38:24.965Z,4.40
2017-10-07T18:40:53.639Z,4.40
2017-10-07T18:43:22.839Z,4.30
2017-10-07T18:45:52.001Z,4.20
2017-10-07T18:53:57.622Z,4.30
2017-10-07T18:56:26.313Z,4.30
2017-10-07T18:58:54.986Z,4.30
2017-10-07T19:04:06.802Z,4.20
2017-10-07T19:06:38.026Z,4.20
2017-10-07T19:11:39.709Z,4.00
2017-10-07T19:29:41.041Z,3.70
2017-10-07T19:32:11.847Z,3.70
2017-10-07T19:34:41.802Z,3.50
2017-10-07T19:42:22.267Z,3.60
2017-10-07T19:44:51.414Z,3.50
2017-10-07T19:47:21.366Z,3.40
2017-10-07T19:49:49.773Z,3.40
2017-10-07T19:52:19.766Z,3.30
2017-10-07T19:54:48.562Z,3.30
2017-10-07T19:59:51.788Z,3.30
2017-10-07T23:02:34.051Z,2.90
2017-10-07T23:05:06.955Z,2.90
2017-10-07T23:07:48.087Z,2.90
2017-10-07T23:22:48.243Z,2.90
2017-10-07T23:25:22.984Z,3.00
2017-10-07T23:39:30.125Z,2.90
2017-10-07T23:44:37.161Z,3.00
2017-10-07T23:57:26.998Z,3.00
